Terminal Aerodrome Forecast
Issued by NWS Sioux Falls, SD

Home | Current Version | Previous Version | Text Only | Print | Product List | Glossary On
Versions: 1 2 3 4 5 6 7 8 9 10 11 12 13 14 15 16
000
FTUS43 KFSD 112000 AAA
TAFHON
TAF AMD
KHON 112000Z 1120/1218 35022G30KT P6SM SCT025 BKN035
     FM112200 35019G27KT P6SM BKN035
     FM120000 35014KT P6SM SCT050
     FM120700 32006KT P6SM BKN060
     FM120900 29005KT P6SM OVC030=

USA.gov is the U.S. government's official web portal to all federal, state and local government web resources and services.